createdAt,value
2022-08-07T00:00:30.646Z,14.04
2022-08-07T00:02:57.866Z,13.99
2022-08-07T00:05:25.612Z,13.95
2022-08-07T00:08:00.141Z,13.96
2022-08-07T00:10:31.034Z,13.99
2022-08-07T00:13:09.555Z,13.90
2022-08-07T00:15:46.774Z,13.90
2022-08-07T00:18:24.039Z,13.86
2022-08-07T00:20:54.390Z,13.92
2022-08-07T00:23:21.824Z,13.95
2022-08-07T00:25:52.511Z,13.87
2022-08-07T00:28:33.532Z,13.80
2022-08-07T00:31:06.440Z,13.78
2022-08-07T00:33:40.968Z,13.70
2022-08-07T00:36:09.584Z,13.75
2022-08-07T00:38:39.135Z,13.71
2022-08-07T00:41:10.004Z,13.78
2022-08-07T00:43:59.012Z,13.83
2022-08-07T00:46:30.299Z,13.83
2022-08-07T00:49:02.941Z,13.79
2022-08-07T00:51:57.739Z,13.85
2022-08-07T00:54:19.826Z,13.88
2022-08-07T00:56:49.571Z,13.83
2022-08-07T00:59:35.031Z,13.74
2022-08-07T01:02:09.036Z,13.90
2022-08-07T01:04:47.658Z,13.85
2022-08-07T01:07:16.282Z,13.91
2022-08-07T01:10:05.038Z,13.87
2022-08-07T01:12:31.375Z,13.86
2022-08-07T01:15:00.931Z,13.80
2022-08-07T01:17:30.213Z,13.80
2022-08-07T01:20:04.012Z,13.83
2022-08-07T01:22:32.215Z,13.88
2022-08-07T01:25:00.901Z,13.92
2022-08-07T01:27:32.734Z,13.89
2022-08-07T01:30:02.679Z,13.95
2022-08-07T01:32:30.857Z,13.89
2022-08-07T01:35:01.094Z,13.93
2022-08-07T01:37:29.969Z,13.99
2022-08-07T01:40:04.915Z,13.95
2022-08-07T01:42:57.251Z,13.86
2022-08-07T01:45:37.368Z,13.85
2022-08-07T01:48:19.467Z,13.92
2022-08-07T01:50:55.664Z,13.90
2022-08-07T01:53:35.142Z,13.87
2022-08-07T01:56:25.440Z,13.84
2022-08-07T01:59:15.893Z,13.80
2022-08-07T02:02:02.360Z,13.71
2022-08-07T02:04:52.668Z,13.65
2022-08-07T02:07:44.881Z,13.51
2022-08-07T02:10:25.844Z,13.56
2022-08-07T02:12:59.643Z,13.42
2022-08-07T02:15:34.196Z,13.34
2022-08-07T02:18:03.326Z,13.32
2022-08-07T02:20:33.213Z,13.40
2022-08-07T02:23:05.160Z,13.38
2022-08-07T02:26:31.176Z,13.15
2022-08-07T02:28:28.635Z,12.93
2022-08-07T02:31:24.688Z,12.86
2022-08-07T02:34:03.073Z,12.86
2022-08-07T02:36:34.549Z,12.75
2022-08-07T02:39:17.231Z,12.70
2022-08-07T02:41:59.876Z,12.72
2022-08-07T02:44:34.758Z,12.70
2022-08-07T02:47:06.884Z,12.70
2022-08-07T02:49:57.585Z,12.74
2022-08-07T02:52:32.642Z,12.70
2022-08-07T02:55:15.293Z,12.67
2022-08-07T02:58:04.087Z,12.74
2022-08-07T03:00:36.047Z,12.72
2022-08-07T03:03:13.640Z,12.71
2022-08-07T03:05:45.838Z,12.54
2022-08-07T03:08:17.917Z,12.39
2022-08-07T03:10:55.767Z,12.36
2022-08-07T03:13:29.487Z,12.36
2022-08-07T03:16:08.597Z,12.43
2022-08-07T03:18:38.231Z,12.34
2022-08-07T03:21:08.173Z,12.23
2022-08-07T03:24:18.331Z,12.33
2022-08-07T03:26:32.197Z,12.41
2022-08-07T03:29:05.716Z,12.34
2022-08-07T03:31:43.255Z,12.26
2022-08-07T03:34:18.712Z,12.06
2022-08-07T03:36:55.081Z,11.86
2022-08-07T03:39:46.249Z,11.80
2022-08-07T03:42:15.952Z,11.80
2022-08-07T03:44:47.144Z,11.76
2022-08-07T03:47:22.822Z,11.69
2022-08-07T03:49:52.462Z,11.70
2022-08-07T03:52:26.352Z,11.77
2022-08-07T03:55:06.844Z,11.84
2022-08-07T03:58:32.676Z,11.89
2022-08-07T04:00:35.342Z,11.89
2022-08-07T04:03:05.242Z,11.79
2022-08-07T04:05:41.072Z,11.86
2022-08-07T04:08:21.409Z,11.82
2022-08-07T04:10:54.543Z,11.82
2022-08-07T04:14:14.052Z,11.85
2022-08-07T04:16:31.058Z,11.91
2022-08-07T04:19:04.268Z,11.93
2022-08-07T04:21:48.105Z,11.99
2022-08-07T04:24:34.259Z,12.06
2022-08-07T04:27:15.155Z,12.14
2022-08-07T04:30:02.152Z,12.17
2022-08-07T04:32:48.041Z,12.24
2022-08-07T04:35:26.170Z,12.27
2022-08-07T04:38:03.952Z,12.28
2022-08-07T04:40:43.919Z,12.30
2022-08-07T04:44:12.106Z,12.41
2022-08-07T04:47:04.092Z,12.46
2022-08-07T04:50:04.201Z,12.53
2022-08-07T04:52:51.410Z,12.56
2022-08-07T04:58:14.295Z,12.72
2022-08-07T04:58:33.708Z,12.93
2022-08-07T05:01:30.226Z,12.85
2022-08-07T05:04:17.395Z,12.80
2022-08-07T05:07:30.578Z,12.95
2022-08-07T05:10:24.816Z,13.08
2022-08-07T05:14:44.440Z,13.25
2022-08-07T05:15:53.543Z,13.37
2022-08-07T05:18:35.340Z,13.68
2022-08-07T05:21:04.902Z,13.72
2022-08-07T05:23:38.210Z,13.84
2022-08-07T05:26:18.755Z,14.02
2022-08-07T05:28:57.400Z,14.08
2022-08-07T05:31:37.699Z,14.12
2022-08-07T05:34:12.107Z,14.18
2022-08-07T05:36:48.956Z,14.30
2022-08-07T05:40:17.521Z,14.53
2022-08-07T05:42:34.218Z,14.42
2022-08-07T05:45:25.866Z,14.51
2022-08-07T05:48:02.687Z,14.59
2022-08-07T05:50:44.732Z,14.76
2022-08-07T05:54:13.263Z,15.02
2022-08-07T05:56:05.805Z,15.17
2022-08-07T05:58:39.339Z,15.40
2022-08-07T06:01:11.909Z,15.58
2022-08-07T06:03:56.275Z,15.69
2022-08-07T06:06:29.752Z,15.86
2022-08-07T06:09:04.701Z,16.09
2022-08-07T06:11:35.018Z,16.16
2022-08-07T06:14:12.853Z,16.30
2022-08-07T06:16:50.372Z,16.62
2022-08-07T06:19:57.619Z,16.75
2022-08-07T06:22:15.416Z,16.90
2022-08-07T06:24:57.870Z,17.15
2022-08-07T06:27:44.158Z,17.58
2022-08-07T06:30:32.048Z,17.77
2022-08-07T06:33:15.592Z,17.80
2022-08-07T06:36:06.200Z,18.25
2022-08-07T06:38:38.084Z,18.16
2022-08-07T06:42:01.586Z,18.50
2022-08-07T06:44:21.042Z,18.77
2022-08-07T06:46:53.181Z,18.72
2022-08-07T06:49:28.378Z,18.87
2022-08-07T06:51:59.549Z,18.83
2022-08-07T06:55:31.678Z,19.02
2022-08-07T06:57:39.414Z,19.23
2022-08-07T07:00:18.388Z,19.10
2022-08-07T07:02:54.263Z,19.12
2022-08-07T07:06:02.816Z,19.16
2022-08-07T07:08:18.202Z,19.27
2022-08-07T07:10:47.407Z,19.42
2022-08-07T07:13:43.653Z,19.63
2022-08-07T07:16:22.079Z,19.82
2022-08-07T07:18:57.408Z,19.76
2022-08-07T07:21:40.524Z,19.87
2022-08-07T07:24:20.766Z,19.93
2022-08-07T07:26:53.188Z,20.17
2022-08-07T07:29:56.781Z,20.02
2022-08-07T07:32:14.338Z,20.16
2022-08-07T07:34:48.668Z,20.29
2022-08-07T07:37:43.878Z,20.30
2022-08-07T07:40:14.698Z,20.51
2022-08-07T07:42:55.419Z,20.37
2022-08-07T07:46:37.704Z,20.36
2022-08-07T07:48:34.786Z,20.61
2022-08-07T07:51:07.982Z,20.75
2022-08-07T07:53:51.248Z,20.63
2022-08-07T07:56:30.335Z,20.97
2022-08-07T07:59:00.433Z,21.13
2022-08-07T08:02:03.337Z,21.24
2022-08-07T08:04:25.397Z,21.34
2022-08-07T08:06:54.864Z,21.46
2022-08-07T08:09:25.348Z,21.50
2022-08-07T08:12:02.452Z,21.62
2022-08-07T08:14:36.392Z,21.39
2022-08-07T08:17:32.357Z,21.34
2022-08-07T08:20:17.116Z,21.26
2022-08-07T08:23:14.353Z,21.41
2022-08-07T08:27:20.470Z,21.52
2022-08-07T08:28:52.109Z,21.66
2022-08-07T08:31:58.789Z,22.21
2022-08-07T08:34:32.896Z,22.53
2022-08-07T08:37:03.289Z,22.51
2022-08-07T08:39:39.571Z,22.47
2022-08-07T08:42:41.101Z,22.61
2022-08-07T08:45:58.752Z,22.78
2022-08-07T08:48:46.934Z,22.60
2022-08-07T08:51:26.288Z,22.07
2022-08-07T08:54:16.389Z,21.90
2022-08-07T08:56:48.720Z,21.81
2022-08-07T08:59:42.135Z,22.17
2022-08-07T09:02:37.539Z,22.90
2022-08-07T09:05:36.854Z,23.07
2022-08-07T09:08:24.395Z,23.17
2022-08-07T09:11:24.693Z,22.83
2022-08-07T09:14:20.171Z,22.50
2022-08-07T09:16:47.625Z,22.06
2022-08-07T09:19:52.902Z,21.73
2022-08-07T09:24:53.643Z,22.33
2022-08-07T09:25:41.458Z,23.09
2022-08-07T09:30:05.704Z,23.30
2022-08-07T09:31:17.030Z,23.10
2022-08-07T09:33:58.283Z,23.41
2022-08-07T09:36:52.789Z,23.35
2022-08-07T09:39:53.801Z,23.45
2022-08-07T09:42:42.270Z,23.20
2022-08-07T09:47:25.279Z,23.37
2022-08-07T09:48:50.143Z,23.22
2022-08-07T09:52:16.729Z,22.90
2022-08-07T09:54:50.713Z,22.40
2022-08-07T09:57:20.747Z,22.09
2022-08-07T10:00:04.057Z,22.42
2022-08-07T10:02:40.095Z,22.76
2022-08-07T10:05:59.651Z,23.24
2022-08-07T10:08:34.982Z,23.18
2022-08-07T10:12:02.288Z,22.88
2022-08-07T10:14:36.002Z,22.85
2022-08-07T10:17:19.227Z,23.16
2022-08-07T10:19:58.754Z,23.51
2022-08-07T10:22:57.783Z,23.84
2022-08-07T10:25:47.179Z,23.76
2022-08-07T10:28:41.585Z,23.78
2022-08-07T10:31:38.792Z,23.97
2022-08-07T10:34:45.275Z,24.07
2022-08-07T10:37:48.387Z,24.07
2022-08-07T10:40:45.215Z,24.18
2022-08-07T10:43:34.111Z,24.33
2022-08-07T10:46:15.752Z,24.36
2022-08-07T10:48:58.084Z,24.76
2022-08-07T10:52:01.971Z,24.75
2022-08-07T10:55:01.042Z,24.78
2022-08-07T10:57:59.358Z,24.34
2022-08-07T11:00:36.460Z,24.38
2022-08-07T11:03:23.297Z,24.25
2022-08-07T11:06:02.941Z,24.36
2022-08-07T11:09:11.665Z,24.45
2022-08-07T11:12:03.045Z,24.21
2022-08-07T11:14:45.905Z,24.33
2022-08-07T11:17:45.327Z,24.53
2022-08-07T11:20:35.698Z,24.61
2022-08-07T11:23:20.748Z,24.37
2022-08-07T11:26:14.202Z,24.29
2022-08-07T11:29:05.468Z,23.97
2022-08-07T11:32:25.389Z,24.10
2022-08-07T11:35:28.672Z,23.96
2022-08-07T11:38:10.491Z,24.02
2022-08-07T11:41:03.427Z,24.39
2022-08-07T11:44:11.430Z,24.13
2022-08-07T11:46:57.034Z,24.22
2022-08-07T11:50:11.516Z,24.45
2022-08-07T11:52:37.687Z,24.52
2022-08-07T11:56:25.131Z,24.45
2022-08-07T11:59:01.516Z,24.32
2022-08-07T12:01:59.198Z,24.26
2022-08-07T12:05:15.053Z,24.35
2022-08-07T12:08:05.421Z,24.48
2022-08-07T12:10:45.253Z,24.65
2022-08-07T12:13:42.158Z,24.69
2022-08-07T12:16:30.763Z,24.45
2022-08-07T12:19:21.992Z,24.70
2022-08-07T12:22:39.355Z,24.85
2022-08-07T12:26:02.797Z,24.95
2022-08-07T12:28:34.529Z,24.70
2022-08-07T12:31:17.249Z,24.70
2022-08-07T12:34:01.424Z,24.56
2022-08-07T12:36:33.276Z,24.62
2022-08-07T12:39:09.426Z,24.65
2022-08-07T12:41:55.450Z,24.51
2022-08-07T12:44:26.091Z,24.63
2022-08-07T12:47:27.044Z,24.78
2022-08-07T12:50:39.396Z,24.91
2022-08-07T12:53:27.639Z,24.95
2022-08-07T12:56:02.817Z,24.58
2022-08-07T12:58:39.326Z,24.63
2022-08-07T13:01:32.497Z,24.59
2022-08-07T13:05:01.625Z,24.77
2022-08-07T13:08:14.055Z,25.06
2022-08-07T13:10:55.804Z,25.25
2022-08-07T13:13:48.262Z,25.08
2022-08-07T13:16:29.824Z,24.69
2022-08-07T13:19:21.649Z,24.70
2022-08-07T13:22:05.126Z,24.78
2022-08-07T13:25:07.135Z,24.57
2022-08-07T13:28:13.078Z,25.03
2022-08-07T13:30:40.500Z,25.27
2022-08-07T13:34:30.213Z,24.95
2022-08-07T13:36:39.692Z,25.01
2022-08-07T13:40:34.268Z,24.85
2022-08-07T13:42:21.546Z,24.96
2022-08-07T13:45:11.709Z,25.30
2022-08-07T13:48:08.320Z,25.30
2022-08-07T13:50:33.064Z,25.43
2022-08-07T13:53:05.419Z,25.01
2022-08-07T13:55:37.203Z,25.04
2022-08-07T13:58:31.761Z,25.01
2022-08-07T14:01:09.250Z,24.97
2022-08-07T14:04:08.179Z,25.11
2022-08-07T14:06:33.005Z,25.12
2022-08-07T14:09:01.428Z,25.23
2022-08-07T14:11:53.267Z,25.20
2022-08-07T14:14:31.366Z,25.10
2022-08-07T14:17:32.286Z,25.39
2022-08-07T14:20:43.674Z,25.39
2022-08-07T14:23:08.588Z,25.25
2022-08-07T14:25:47.935Z,25.25
2022-08-07T14:28:18.307Z,25.47
2022-08-07T14:30:52.234Z,25.53
2022-08-07T14:36:09.677Z,25.24
2022-08-07T14:38:50.645Z,24.97
2022-08-07T14:41:33.856Z,25.17
2022-08-07T14:44:10.027Z,25.07
2022-08-07T14:47:14.373Z,24.78
2022-08-07T14:49:57.582Z,25.02
2022-08-07T14:52:32.155Z,25.12
2022-08-07T14:55:01.805Z,24.78
2022-08-07T14:57:57.952Z,25.00
2022-08-07T15:00:30.373Z,25.04
2022-08-07T15:02:59.240Z,25.15
2022-08-07T15:05:30.371Z,25.32
2022-08-07T15:08:05.030Z,25.03
2022-08-07T15:10:32.728Z,24.87
2022-08-07T15:13:06.477Z,24.87
2022-08-07T15:15:43.889Z,24.79
2022-08-07T15:18:34.807Z,24.62
2022-08-07T15:25:14.122Z,24.65
2022-08-07T15:26:55.661Z,24.82
2022-08-07T15:30:08.746Z,24.87
2022-08-07T15:32:13.422Z,24.89
2022-08-07T15:38:04.842Z,24.76
2022-08-07T15:40:33.845Z,24.89
2022-08-07T15:43:53.518Z,24.79
2022-08-07T15:46:31.902Z,24.79
2022-08-07T15:49:12.942Z,24.89
2022-08-07T15:54:39.601Z,24.56
2022-08-07T15:57:39.334Z,24.28
2022-08-07T16:00:06.429Z,24.46
2022-08-07T16:02:40.479Z,24.48
2022-08-07T16:05:13.031Z,24.60
2022-08-07T16:08:32.160Z,24.62
2022-08-07T16:10:37.665Z,24.78
2022-08-07T16:13:57.737Z,24.69
2022-08-07T16:16:48.167Z,24.71
2022-08-07T16:19:43.128Z,24.76
2022-08-07T16:23:05.496Z,24.79
2022-08-07T16:26:05.127Z,24.45
2022-08-07T16:30:06.977Z,24.07
2022-08-07T16:32:33.144Z,24.09
2022-08-07T16:34:59.869Z,24.14
2022-08-07T16:38:04.037Z,24.05
2022-08-07T16:41:06.266Z,23.81
2022-08-07T16:44:47.325Z,23.80
2022-08-07T16:47:50.890Z,23.98
2022-08-07T16:50:39.206Z,24.01
2022-08-07T16:54:03.134Z,24.02
2022-08-07T16:56:53.230Z,23.83
2022-08-07T16:59:55.787Z,23.69
2022-08-07T17:02:58.902Z,23.57
2022-08-07T17:06:19.160Z,23.33
2022-08-07T17:10:05.085Z,23.28
2022-08-07T17:12:33.883Z,23.27
2022-08-07T17:15:15.584Z,23.18
2022-08-07T17:17:49.070Z,23.03
2022-08-07T17:20:31.462Z,22.98
2022-08-07T17:23:32.216Z,22.96
2022-08-07T17:26:36.824Z,22.94
2022-08-07T17:30:14.531Z,22.80
2022-08-07T17:34:17.914Z,22.58
2022-08-07T17:36:58.021Z,22.55
2022-08-07T17:39:58.424Z,22.46
2022-08-07T17:42:29.606Z,22.36
2022-08-07T17:44:58.996Z,22.25
2022-08-07T17:48:01.657Z,22.27
2022-08-07T17:58:52.483Z,22.08
2022-08-07T18:02:11.570Z,21.98
2022-08-07T18:09:00.533Z,21.85
2022-08-07T18:12:08.389Z,21.80
2022-08-07T18:14:59.969Z,21.79
2022-08-07T18:18:46.849Z,21.73
2022-08-07T18:21:12.329Z,21.52
2022-08-07T18:23:43.564Z,21.46
2022-08-07T18:26:18.933Z,21.42
2022-08-07T18:30:06.027Z,21.24
2022-08-07T18:32:13.139Z,21.21
2022-08-07T18:35:10.486Z,21.12
2022-08-07T18:38:58.569Z,21.12
2022-08-07T18:41:20.490Z,21.03
2022-08-07T18:43:57.888Z,20.93
2022-08-07T18:46:46.281Z,20.96
2022-08-07T18:50:32.921Z,20.91
2022-08-07T18:52:51.660Z,20.74
2022-08-07T18:55:42.763Z,20.58
2022-08-07T18:58:19.980Z,20.62
2022-08-07T19:01:00.889Z,20.62
2022-08-07T19:04:09.827Z,20.57
2022-08-07T19:07:09.822Z,20.60
2022-08-07T19:10:21.890Z,20.59
2022-08-07T19:12:58.238Z,20.62
2022-08-07T19:16:04.374Z,20.50
2022-08-07T19:18:44.624Z,20.54
2022-08-07T19:21:44.188Z,20.45
2022-08-07T19:24:30.026Z,20.34
2022-08-07T19:28:57.948Z,20.19
2022-08-07T19:31:03.087Z,20.18
2022-08-07T19:32:45.144Z,20.22
2022-08-07T19:35:18.970Z,20.21
2022-08-07T19:37:59.555Z,20.15
2022-08-07T19:40:31.406Z,20.09
2022-08-07T19:43:07.957Z,20.05
2022-08-07T19:46:05.587Z,20.00
2022-08-07T19:48:44.365Z,20.05
2022-08-07T19:51:51.340Z,20.12
2022-08-07T19:54:44.012Z,20.10
2022-08-07T19:58:03.554Z,20.06
2022-08-07T19:59:55.223Z,19.92
2022-08-07T20:02:30.233Z,19.90
2022-08-07T20:05:02.903Z,19.85
2022-08-07T20:07:47.201Z,19.91
2022-08-07T20:10:38.059Z,19.82
2022-08-07T20:13:22.954Z,19.83
2022-08-07T20:15:53.947Z,19.89
2022-08-07T20:18:32.972Z,19.94
2022-08-07T20:21:14.294Z,20.01
2022-08-07T20:23:53.847Z,19.98
2022-08-07T20:26:32.492Z,19.91
2022-08-07T20:29:17.036Z,19.74
2022-08-07T20:32:01.284Z,19.40
2022-08-07T20:34:49.384Z,19.30
2022-08-07T20:37:23.454Z,19.19
2022-08-07T20:40:04.368Z,19.21
2022-08-07T20:42:35.224Z,19.30
2022-08-07T20:46:24.971Z,19.33
2022-08-07T20:47:57.846Z,19.38
2022-08-07T20:50:28.939Z,19.31
2022-08-07T20:52:59.632Z,19.36
2022-08-07T20:55:32.233Z,19.21
2022-08-07T20:58:12.283Z,19.14
2022-08-07T21:00:53.791Z,19.06
2022-08-07T21:03:25.897Z,18.99
2022-08-07T21:06:03.650Z,18.96
2022-08-07T21:09:14.244Z,18.96
2022-08-07T21:11:51.363Z,18.83
2022-08-07T21:14:40.253Z,18.79
2022-08-07T21:18:03.309Z,18.74
2022-08-07T21:20:26.715Z,18.65
2022-08-07T21:23:08.375Z,18.67
2022-08-07T21:25:52.239Z,18.65
2022-08-07T21:28:49.786Z,18.57
2022-08-07T21:31:31.357Z,18.52
2022-08-07T21:34:48.440Z,18.52
2022-08-07T21:37:24.016Z,18.41
2022-08-07T21:40:04.282Z,18.38
2022-08-07T21:43:05.239Z,18.28
2022-08-07T21:46:08.386Z,18.26
2022-08-07T21:48:43.864Z,18.10
2022-08-07T21:51:24.908Z,17.95
2022-08-07T21:54:12.871Z,17.88
2022-08-07T21:57:30.934Z,17.91
2022-08-07T22:00:19.221Z,17.91
2022-08-07T22:03:05.830Z,17.77
2022-08-07T22:05:45.877Z,17.76
2022-08-07T22:08:20.916Z,17.76
2022-08-07T22:10:51.614Z,17.79
2022-08-07T22:13:24.568Z,17.73
2022-08-07T22:16:38.481Z,17.75
2022-08-07T22:19:16.486Z,17.59
2022-08-07T22:22:04.365Z,17.54
2022-08-07T22:24:45.466Z,17.46
2022-08-07T22:27:19.296Z,17.45
2022-08-07T22:30:00.880Z,17.41
2022-08-07T22:32:39.204Z,17.32
2022-08-07T22:35:11.307Z,17.33
2022-08-07T22:38:10.219Z,17.27
2022-08-07T22:41:16.535Z,17.19
2022-08-07T22:43:51.351Z,17.17
2022-08-07T22:47:03.564Z,17.17
2022-08-07T22:49:54.310Z,17.17
2022-08-07T22:53:03.499Z,17.13
2022-08-07T22:55:49.467Z,17.11
2022-08-07T22:58:30.669Z,17.04
2022-08-07T23:01:06.298Z,16.97
2022-08-07T23:03:58.151Z,16.88
2022-08-07T23:06:38.832Z,16.81
2022-08-07T23:10:06.205Z,16.81
2022-08-07T23:12:51.353Z,16.77
2022-08-07T23:16:06.646Z,16.75
2022-08-07T23:19:14.827Z,16.79
2022-08-07T23:22:05.282Z,16.71
2022-08-07T23:25:08.797Z,16.68
2022-08-07T23:28:28.889Z,16.45
2022-08-07T23:32:50.342Z,16.43
2022-08-07T23:34:37.323Z,16.38
2022-08-07T23:37:37.355Z,16.35
2022-08-07T23:40:30.925Z,16.34
2022-08-07T23:43:18.954Z,16.31
2022-08-07T23:46:07.533Z,16.29
2022-08-07T23:48:58.703Z,16.24
2022-08-07T23:52:59.709Z,16.20
2022-08-07T23:54:36.079Z,16.20
2022-08-07T23:57:34.871Z,16.16
